Terminal Aerodrome Forecast
Issued by NWS Caribou, ME

Home | Current Version | Previous Version | Text Only | Print | Product List | Glossary On
Versions: 1 2 3 4 5 6 7 8 9 10 11 12 13 14 15 16 17 18 19 20 21 22 23
823
FTUS41 KCAR 041741
TAFCAR
TAF
KCAR 041741Z 0418/0518 16004KT P6SM SCT025 OVC040
     FM050500 10004KT P6SM OVC025
     FM050700 09004KT P6SM OVC018
     FM051500 07007KT P6SM BKN025=

USA.gov is the U.S. government's official web portal to all federal, state and local government web resources and services.